createdAt,value
2023-04-21T00:00:18.327Z,93126.63
2023-04-21T00:05:22.495Z,93025.69
2023-04-21T00:10:25.910Z,93055.06
2023-04-21T00:15:29.650Z,93074.63
2023-04-21T00:20:33.768Z,93043.44
2023-04-21T00:25:38.225Z,93049.25
2023-04-21T00:30:42.093Z,93049.63
2023-04-21T00:35:45.302Z,93033.63
2023-04-21T00:40:49.142Z,93037.91
2023-04-21T00:45:52.607Z,93106.25
2023-04-21T00:50:56.944Z,93025.66
2023-04-21T00:56:00.142Z,93022.06
2023-04-21T01:01:05.713Z,93003.72
2023-04-21T01:06:10.221Z,93024.84
2023-04-21T01:11:14.994Z,93012.84
2023-04-21T01:16:19.063Z,93011.84
2023-04-21T01:21:23.915Z,93001.84
2023-04-21T01:26:27.496Z,92990.13
2023-04-21T01:31:31.492Z,93056.66
2023-04-21T01:36:37.719Z,93043.00
2023-04-21T01:41:41.869Z,93006.03
2023-04-21T01:46:45.892Z,92921.38
2023-04-21T01:51:49.557Z,92961.19
2023-04-21T01:56:53.918Z,92958.09
2023-04-21T02:01:58.272Z,92966.72
2023-04-21T02:07:02.530Z,92989.78
2023-04-21T02:12:06.417Z,92992.09
2023-04-21T02:17:10.685Z,92985.72
2023-04-21T02:22:14.428Z,92971.72
2023-04-21T02:27:17.802Z,92944.00
2023-04-21T02:32:25.960Z,92977.53
2023-04-21T02:37:30.058Z,92954.50
2023-04-21T02:42:35.123Z,92974.75
2023-04-21T02:47:38.403Z,92968.84
2023-04-21T02:52:41.642Z,92964.81
2023-04-21T02:57:45.371Z,93017.72
2023-04-21T03:02:49.348Z,92927.22
2023-04-21T03:07:53.593Z,92920.47
2023-04-21T03:12:57.657Z,92957.19
2023-04-21T03:18:01.955Z,92964.63
2023-04-21T03:23:05.476Z,92938.03
2023-04-21T03:28:10.521Z,92956.69
2023-04-21T03:33:13.676Z,92933.94
2023-04-21T03:38:17.763Z,92992.38
2023-04-21T03:43:22.128Z,92940.25
2023-04-21T03:48:26.135Z,93012.88
2023-04-21T03:53:29.698Z,92928.75
2023-04-21T03:58:33.269Z,92994.88
2023-04-21T04:03:36.988Z,92966.47
2023-04-21T04:08:41.234Z,92974.44
2023-04-21T04:13:44.962Z,92934.50
2023-04-21T04:18:51.458Z,93011.19
2023-04-21T04:23:55.264Z,92951.22
2023-04-21T04:29:05.468Z,92906.88
2023-04-21T04:34:09.918Z,92955.44
2023-04-21T04:39:14.763Z,93011.44
2023-04-21T04:44:19.248Z,92992.38
2023-04-21T04:49:24.182Z,93056.53
2023-04-21T04:54:29.504Z,93002.78
2023-04-21T04:59:33.245Z,93014.97
2023-04-21T05:04:37.401Z,93063.03
2023-04-21T05:09:40.672Z,92986.22
2023-04-21T05:14:44.622Z,92992.50
2023-04-21T05:19:48.108Z,92975.75
2023-04-21T05:24:51.728Z,92992.16
2023-04-21T05:29:57.093Z,92985.91
2023-04-21T05:35:00.614Z,92995.25
2023-04-21T05:40:04.051Z,92987.00
2023-04-21T05:45:08.617Z,93013.31
2023-04-21T05:50:12.869Z,93068.63
2023-04-21T05:55:16.621Z,93025.72
2023-04-21T06:00:20.237Z,93049.78
2023-04-21T06:05:23.936Z,93099.19
2023-04-21T06:10:27.667Z,93025.38
2023-04-21T06:15:30.841Z,92994.50
2023-04-21T06:20:34.081Z,93032.25
2023-04-21T06:25:37.211Z,93080.41
2023-04-21T06:30:41.159Z,93029.53
2023-04-21T06:35:44.795Z,93017.41
2023-04-21T06:40:48.369Z,93023.38
2023-04-21T06:45:52.278Z,92984.53
2023-04-21T06:50:56.369Z,93016.41
2023-04-21T06:56:00.319Z,93040.13
2023-04-21T07:01:04.053Z,93025.78
2023-04-21T07:06:07.890Z,93063.09
2023-04-21T07:11:12.157Z,93088.28
2023-04-21T07:16:15.576Z,93039.13
2023-04-21T07:21:19.070Z,93057.47
2023-04-21T07:26:23.099Z,93086.19
2023-04-21T07:31:26.789Z,93064.81
2023-04-21T07:36:31.325Z,93068.84
2023-04-21T07:41:36.190Z,93069.91
2023-04-21T07:46:40.470Z,93078.69
2023-04-21T07:51:44.361Z,93095.41
2023-04-21T07:56:47.977Z,93076.72
2023-04-21T08:01:52.044Z,93074.59
2023-04-21T08:06:56.432Z,93147.63
2023-04-21T08:12:00.161Z,93074.28
2023-04-21T08:17:03.691Z,93072.56
2023-04-21T08:22:07.458Z,93167.34
2023-04-21T08:27:10.662Z,93083.34
2023-04-21T08:32:14.354Z,93139.63
2023-04-21T08:37:19.234Z,93121.38
2023-04-21T08:42:22.803Z,93078.63
2023-04-21T08:47:26.581Z,93154.63
2023-04-21T08:52:29.793Z,93144.88
2023-04-21T08:57:33.866Z,93119.56
2023-04-21T09:03:01.281Z,93134.22
2023-04-21T09:08:19.446Z,93163.66
2023-04-21T09:13:31.221Z,93148.31
2023-04-21T09:18:41.639Z,93130.22
2023-04-21T09:23:47.275Z,93171.88
2023-04-21T09:28:53.345Z,93164.25
2023-04-21T09:34:01.023Z,93107.22
2023-04-21T09:44:14.254Z,93157.56
2023-04-21T09:49:18.763Z,93157.44
2023-04-21T09:54:30.471Z,93140.47
2023-04-21T09:59:39.130Z,93144.94
2023-04-21T10:04:44.059Z,93109.06
2023-04-21T10:09:54.832Z,93165.44
2023-04-21T10:14:58.947Z,93157.25
2023-04-21T10:20:02.324Z,93148.63
2023-04-21T10:25:10.397Z,93154.78
2023-04-21T10:30:21.177Z,93146.44
2023-04-21T10:35:24.880Z,93166.50
2023-04-21T10:40:42.964Z,93166.06
2023-04-21T10:45:47.720Z,93120.53
2023-04-21T10:50:51.347Z,93114.03
2023-04-21T10:55:55.086Z,93104.38
2023-04-21T11:00:59.462Z,93127.25
2023-04-21T11:06:15.146Z,93127.25
2023-04-21T11:11:24.508Z,93134.53
2023-04-21T11:16:28.200Z,93111.91
2023-04-21T11:21:33.380Z,93118.19
2023-04-21T11:26:42.890Z,93128.50
2023-04-21T11:31:49.223Z,93144.53
2023-04-21T11:36:54.024Z,93128.94
2023-04-21T11:41:58.058Z,93121.38
2023-04-21T11:47:12.342Z,93162.03
2023-04-21T11:52:34.586Z,93169.94
2023-04-21T11:57:53.384Z,93165.81
2023-04-21T12:03:08.862Z,93160.75
2023-04-21T12:08:34.962Z,93161.84
2023-04-21T12:13:41.098Z,93131.47
2023-04-21T12:18:44.663Z,93092.06
2023-04-21T12:23:48.809Z,93090.66
2023-04-21T12:34:31.113Z,93086.50
2023-04-21T12:39:34.864Z,93123.16
2023-04-21T12:44:40.279Z,93096.22
2023-04-21T12:49:44.492Z,93091.06
2023-04-21T12:54:47.579Z,93122.47
2023-04-21T12:59:51.420Z,93062.56
2023-04-21T13:04:54.633Z,93084.72
2023-04-21T13:09:58.700Z,93088.19
2023-04-21T13:15:02.444Z,93059.66
2023-04-21T13:20:07.535Z,93086.50
2023-04-21T13:25:10.864Z,93087.44
2023-04-21T13:30:16.134Z,93099.13
2023-04-21T13:35:19.323Z,93114.44
2023-04-21T13:40:23.002Z,93092.72
2023-04-21T13:45:26.986Z,93099.16
2023-04-21T13:50:30.686Z,93028.31
2023-04-21T13:55:34.319Z,93066.28
2023-04-21T14:00:39.061Z,93080.41
2023-04-21T14:05:43.053Z,93090.13
2023-04-21T14:10:47.402Z,93041.91
2023-04-21T14:15:51.450Z,93055.03
2023-04-21T14:20:55.109Z,93053.69
2023-04-21T14:25:59.140Z,93074.91
2023-04-21T14:31:04.474Z,93039.97
2023-04-21T14:36:08.527Z,93053.72
2023-04-21T14:41:12.798Z,93103.94
2023-04-21T14:46:16.176Z,93028.88
2023-04-21T14:51:20.488Z,93087.69
2023-04-21T14:56:24.508Z,93055.44
2023-04-21T15:01:28.053Z,93068.28
2023-04-21T15:06:31.904Z,93096.88
2023-04-21T15:11:35.662Z,93049.91
2023-04-21T15:16:39.351Z,93052.09
2023-04-21T15:21:43.441Z,93054.38
2023-04-21T15:26:47.411Z,93052.75
2023-04-21T15:31:51.108Z,93043.28
2023-04-21T15:36:54.908Z,93039.81
2023-04-21T15:41:59.441Z,93038.97
2023-04-21T15:47:02.736Z,93037.66
2023-04-21T15:52:07.302Z,93050.81
2023-04-21T15:57:11.528Z,93063.84
2023-04-21T16:02:16.018Z,93074.78
2023-04-21T16:07:20.313Z,93098.44
2023-04-21T16:12:23.981Z,93079.13
2023-04-21T16:17:28.216Z,93075.53
2023-04-21T16:22:32.650Z,93083.00
2023-04-21T16:27:35.765Z,93056.56
2023-04-21T16:32:39.654Z,93096.19
2023-04-21T16:37:44.596Z,93074.25
2023-04-21T16:42:49.198Z,93117.72
2023-04-21T16:47:53.396Z,93104.56
2023-04-21T16:52:57.396Z,93115.97
2023-04-21T16:58:01.456Z,93099.56
2023-04-21T17:03:05.294Z,93082.06
2023-04-21T17:08:09.528Z,93077.41
2023-04-21T17:13:13.021Z,93086.00
2023-04-21T17:18:17.169Z,93060.03
2023-04-21T17:23:20.604Z,93031.78
2023-04-21T17:28:32.473Z,93083.69
2023-04-21T17:33:36.537Z,93083.94
2023-04-21T17:38:42.062Z,93113.34
2023-04-21T17:43:46.025Z,93155.59
2023-04-21T17:48:50.101Z,93079.28
2023-04-21T17:53:54.660Z,93156.50
2023-04-21T17:58:57.936Z,93075.50
2023-04-21T18:04:02.068Z,93100.91
2023-04-21T18:09:05.965Z,93094.72
2023-04-21T18:14:09.659Z,93122.41
2023-04-21T18:19:13.608Z,93065.88
2023-04-21T18:24:17.226Z,93099.03
2023-04-21T18:29:20.510Z,93143.88
2023-04-21T18:34:24.289Z,93129.44
2023-04-21T18:39:27.801Z,93131.72
2023-04-21T18:44:32.160Z,93122.38
2023-04-21T18:49:35.831Z,93109.47
2023-04-21T18:54:40.171Z,93150.78
2023-04-21T18:59:43.808Z,93138.28
2023-04-21T19:04:48.039Z,93171.88
2023-04-21T19:09:52.390Z,93189.38
2023-04-21T19:14:56.669Z,93152.25
2023-04-21T19:20:00.961Z,93147.16
2023-04-21T19:25:06.413Z,93159.63
2023-04-21T19:30:10.109Z,93205.72
2023-04-21T19:35:13.756Z,93196.25
2023-04-21T19:40:17.862Z,93188.03
2023-04-21T19:45:21.387Z,93125.44
2023-04-21T19:50:25.473Z,93137.31
2023-04-21T19:55:29.196Z,93184.09
2023-04-21T20:00:32.890Z,93164.47
2023-04-21T20:05:36.496Z,93188.34
2023-04-21T20:10:45.491Z,93115.94
2023-04-21T20:15:49.638Z,93143.25
2023-04-21T20:20:53.177Z,93165.84
2023-04-21T20:25:58.273Z,93181.84
2023-04-21T20:31:02.009Z,93184.88
2023-04-21T20:36:07.624Z,93189.53
2023-04-21T20:41:11.192Z,93193.00
2023-04-21T20:46:16.002Z,93218.31
2023-04-21T20:51:19.683Z,93250.69
2023-04-21T20:56:22.962Z,93190.38
2023-04-21T21:01:28.675Z,93192.69
2023-04-21T21:06:33.977Z,93209.53
2023-04-21T21:11:37.582Z,93219.25
2023-04-21T21:16:40.971Z,93206.66
2023-04-21T21:21:44.975Z,93199.09
2023-04-21T21:26:48.455Z,93233.91
2023-04-21T21:31:52.054Z,93173.94
2023-04-21T21:36:55.895Z,93206.22
2023-04-21T21:41:59.515Z,93196.47
2023-04-21T21:47:03.704Z,93246.25
2023-04-21T21:52:06.967Z,93233.47
2023-04-21T21:57:10.240Z,93130.94
2023-04-21T22:02:13.867Z,93234.66
2023-04-21T22:07:17.916Z,93174.38
2023-04-21T22:12:21.925Z,93187.31
2023-04-21T22:17:26.106Z,93205.19
2023-04-21T22:22:29.393Z,93257.69
2023-04-21T22:27:34.074Z,93177.47
2023-04-21T22:32:37.953Z,93255.88
2023-04-21T22:37:42.663Z,93231.63
2023-04-21T22:42:46.828Z,93202.22
2023-04-21T22:47:51.416Z,93165.34
2023-04-21T22:52:55.415Z,93153.16
2023-04-21T22:57:59.116Z,93186.66
2023-04-21T23:03:03.255Z,93192.13
2023-04-21T23:08:07.392Z,93172.53
2023-04-21T23:13:11.155Z,93176.50
2023-04-21T23:18:14.737Z,93193.00
2023-04-21T23:23:18.842Z,93242.28
2023-04-21T23:28:22.269Z,93209.31
2023-04-21T23:33:25.892Z,93213.34
2023-04-21T23:38:29.284Z,93226.22
2023-04-21T23:43:34.857Z,93175.25
2023-04-21T23:48:38.400Z,93216.03
2023-04-21T23:53:42.574Z,93171.19
2023-04-21T23:58:46.124Z,93141.75
